Track Капитонов Максим

Time Latitude Longitude Accuracy (66% radius in meters) Altitude (meters) Speed (km/hour) Bearing (degrees) Battery (%) GPS flag
09:26:16 55.944035 38.068163 2 178.89999389648 0 0 68 1 delete
09:26:07 55.944035 38.068163 3 178.89999389648 0 0 68 1 delete
09:25:55 55.944035 38.068163 2 178.89999389648 0 0 68 1 delete
09:25:46 55.944035 38.068163 2 178.89999389648 0 0 68 1 delete
09:25:34 55.944035 38.068163 2 178.89999389648 0 0 68 1 delete
09:25:25 55.944035 38.068163 1.5 178.89999389648 0 0 68 1 delete
09:25:22 55.944040 38.068136 2 180.80000305176 0.68000000715256 100.40954589844 68 1 delete
09:25:13 55.944025 38.068091 1.5 182.69999694824 0 0 68 1 delete
09:25:04 55.944022 38.068037 1.5 182.69999694824 0.39999997615814 30.130004882812 68 1 delete
09:25:01 55.944013 38.068027 1.5 182.39999389648 0 0 68 1 delete
09:24:55 55.943988 38.067956 1.5 183.5 1.1200000047684 59.408569335938 68 1 delete
09:24:52 55.943976 38.067899 1.5 183.30000305176 1.3299999237061 87.901611328125 68 1 delete
09:24:49 55.943965 38.067828 1.5 183.10000610352 1.7999999523163 62.034301757812 68 1 delete
09:24:46 55.943946 38.067746 1.5 182.89999389648 1.7699999809265 69.993896484375 68 1 delete
09:24:43 55.943924 38.067696 1.5 182.19999694824 0.9099999666214 44.566040039062 68 1 delete
09:24:31 55.943917 38.067683 2 182.30000305176 0.61000001430511 75.12451171875 68 1 delete
09:24:22 55.943915 38.067598 1.5 182.60000610352 0.34999999403954 81.177978515625 68 1 delete
09:24:19 55.943905 38.067573 1.5 182.10000610352 2.1499998569489 47.807006835938 68 1 delete
09:24:16 55.943827 38.067403 1.5 182.39999389648 5.6900000572205 33.22265625 68 1 delete
09:24:13 55.943651 38.067347 2 185.30000305176 5.6399998664856 354.45190429688 68 1 delete
09:24:10 55.943504 38.067218 2 185.60000610352 3.6199998855591 59.47998046875 68 1 delete
09:24:07 55.943465 38.067086 2 185.60000610352 2.2200000286102 63.253784179688 68 1 delete
09:24:04 55.943441 38.066994 2 185 0.79999995231628 104.44152832031 68 1 delete
09:24:01 55.943405 38.066866 2 185 4.3399996757507 66.42333984375 68 1 delete
09:23:58 55.943327 38.066576 2 186.5 4.8800001144409 77.404174804688 68 1 delete
09:23:55 55.943257 38.066329 2.5 186.39999389648 3.0299999713898 48.27392578125 68 1 delete
09:23:52 55.943155 38.066267 2.5 185.89999389648 3.6199998855591 0.76904296875 68 1 delete
09:23:49 55.943049 38.066213 2.5 185.69999694824 3.2999999523163 34.1455078125 68 1 delete
09:23:46 55.942997 38.066243 1.5 184.69999694824 3.9399998188019 298.15246582031 68 1 delete
09:23:43 55.942884 38.066392 2 186.19999694824 4.5199999809265 327.50793457031 68 1 delete
09:23:40 55.942787 38.066493 2 186.30000305176 3.3999998569489 324.05822753906 68 1 delete
09:23:37 55.942688 38.066564 2 186.30000305176 3.460000038147 343.93798828125 68 1 delete
09:23:34 55.942594 38.066642 2 186.5 4.4800000190735 321.67419433594 68 1 delete
09:23:31 55.942477 38.066652 2 187.60000610352 3.6099998950958 41.577758789062 68 1 delete
09:23:28 55.942398 38.066541 2 187.5 1.9699999094009 31.448364257812 68 1 delete
09:23:22 55.942324 38.066476 2 186.19999694824 3.5999999046326 12.579345703125 68 1 delete
09:23:19 55.942216 38.066466 1.5 187.69999694824 4.7699999809265 0.59326171875 68 1 delete
09:23:16 55.942087 38.066446 2 187.80000305176 4.210000038147 4.1033935546875 68 1 delete
09:23:13 55.941945 38.066418 2 189.5 3.8199999332428 13.178100585938 68 1 delete
09:23:10 55.941848 38.066338 2 189.60000610352 3.1499998569489 31.228637695312 68 1 delete
09:23:07 55.941762 38.066291 2 190 3.1799998283386 356.73156738281 68 1 delete
09:23:04 55.941713 38.066227 1.5 190.80000305176 4.3899998664856 86.9677734375 68 1 delete
09:23:01 55.941741 38.065998 1.5 190.5 5.2699999809265 109.2919921875 68 1 delete
09:22:58 55.941804 38.065737 1.5 191 4.9699997901917 113.52172851562 68 1 delete
09:22:55 55.941859 38.065526 1.5 189.60000610352 5.6700000762939 123.65661621094 68 1 delete
09:22:52 55.941960 38.065301 1.5 190.80000305176 5.5699996948242 132.9345703125 68 1 delete
09:22:49 55.942072 38.065076 1.5 192.30000305176 5.8199996948242 117.41088867188 68 1 delete
09:22:46 55.942127 38.064795 1.5 193.19999694824 5.0599999427795 105.95764160156 68 1 delete
09:22:43 55.942151 38.064539 2 193.89999389648 4.4800000190735 100.52490234375 68 1 delete
09:22:40 55.942172 38.064342 2 193.39999389648 3.25 131.86889648438 68 1 delete